Sea Venture — WDF5080 — position and weather

sailwx.info

Track history (hours):
 
Tides and Currents Weather Stations Pressure Air Temp Water Temp Dewpoint Dewpoint Depression Visibility Wind Speed Wind Dir Waves Ship Positions

Sea Venture

More information available from US FCC via Universal Licensing System and Coast Guard Vessel Documentation Center.

Last reported at 2014-Jul-24 18:23 UTC. Time now 2014-Aug-01 07:54 UTC.
Position N 26°08' W 080°07'.

Length 33 m.

MMSI: 338103225.

Date/timePositionNaut miles runAvg speedWind from/ knotsBaromVisibWave heightAir tempDewpointWater temp
2014-Jul-24 18:23N 26°08' W 080°07'1 1.5
2014-Jul-24 17:33N 26°07' W 080°07'6 5.8
2014-Jul-24 16:33N 26°01' W 080°07'6 5.7
2014-Jul-24 15:33N 25°55' W 080°08'9 7.5
2014-Jul-24 14:22N 25°47' W 080°11'8 0.4
2014-Jul-23 18:33N 25°39' W 080°08'  
2014-Jul-19 13:30N 25°41' W 080°07'1213.0
2014-Jul-19 12:33N 25°54' W 080°06'1212.2
2014-Jul-19 11:33N 26°06' W 080°07'2 0.2
2014-Jul-18 21:33N 26°08' W 080°07'0 0.0
2014-Jul-18 20:33N 26°08' W 080°07'0 0.0
2014-Jul-18 19:33N 26°08' W 080°07'0 0.0
2014-Jul-18 18:33N 26°08' W 080°07'0 0.0
2014-Jul-18 17:33N 26°08' W 080°07'0 0.0
2014-Jul-18 16:33N 26°08' W 080°07'0 0.0
2014-Jul-18 15:33N 26°08' W 080°07'0 0.0
2014-Jul-18 14:33N 26°08' W 080°07'0 0.0
2014-Jul-18 13:33N 26°08' W 080°07'0 0.0
2014-Jul-18 12:33N 26°08' W 080°07'0 0.0
2014-Jul-18 11:33N 26°08' W 080°07'0 0.0
2014-Jul-18 10:33N 26°08' W 080°07'0 0.0
2014-Jul-18 09:33N 26°08' W 080°07'0 0.0
2014-Jul-18 08:33N 26°08' W 080°07'0 0.0
2014-Jul-18 07:33N 26°08' W 080°07'0 0.0
2014-Jul-18 06:33N 26°08' W 080°07'0 0.0
2014-Jul-18 05:33N 26°08' W 080°07'0 0.0
2014-Jul-18 04:33N 26°08' W 080°07'0 0.0
2014-Jul-18 03:33N 26°08' W 080°07'0 0.0
2014-Jul-18 02:33N 26°08' W 080°07'0 0.0
2014-Jul-18 01:33N 26°08' W 080°07'0 0.0
2014-Jul-18 00:33N 26°08' W 080°07'0 0.0
2014-Jul-17 23:33N 26°08' W 080°07'0 0.0
2014-Jul-17 22:33N 26°08' W 080°07'0 0.0
2014-Jul-17 21:33N 26°08' W 080°07'0 0.0
2014-Jul-17 20:33N 26°08' W 080°07'0 0.0
2014-Jul-17 19:33N 26°08' W 080°07'0 0.0
2014-Jul-17 18:33N 26°08' W 080°07'0 0.0
2014-Jul-17 17:33N 26°08' W 080°07'0 0.0
2014-Jul-17 16:33N 26°08' W 080°07'0 0.0
2014-Jul-17 15:33N 26°08' W 080°07'0 0.0
2014-Jul-17 14:33N 26°08' W 080°07'0 0.0
2014-Jul-17 13:33N 26°08' W 080°07'0 0.0
2014-Jul-17 12:33N 26°08' W 080°07'0 0.0
2014-Jul-17 11:33N 26°08' W 080°07'0 0.0
2014-Jul-17 10:33N 26°08' W 080°07'0 0.0
2014-Jul-17 09:33N 26°08' W 080°07'0 0.0
2014-Jul-17 08:33N 26°08' W 080°07'0 0.0
2014-Jul-17 07:33N 26°08' W 080°07'0 0.0
2014-Jul-17 06:33N 26°08' W 080°07'0 0.0
2014-Jul-17 05:33N 26°08' W 080°07'0 0.0
2014-Jul-17 04:33N 26°08' W 080°07'0 0.0
2014-Jul-17 03:33N 26°08' W 080°07'0 0.0
2014-Jul-17 02:33N 26°08' W 080°07'0 0.0
2014-Jul-17 01:33N 26°08' W 080°07'0 0.0
2014-Jul-17 00:33N 26°08' W 080°07'0 0.0
2014-Jul-16 23:33N 26°08' W 080°07'0 0.0
2014-Jul-16 22:33N 26°08' W 080°07'0 0.0
2014-Jul-16 21:33N 26°08' W 080°07'0 0.0
2014-Jul-16 20:33N 26°08' W 080°07'0 0.0
2014-Jul-16 19:33N 26°08' W 080°07'0 0.0
2014-Jul-16 18:33N 26°08' W 080°07'0 0.0
2014-Jul-16 17:33N 26°08' W 080°07'0 0.0
2014-Jul-16 16:33N 26°08' W 080°07'0 0.0
2014-Jul-16 15:33N 26°08' W 080°07'  
Track history (hours):
 
Tides and Currents Weather Stations Pressure Air Temp Water Temp Dewpoint Dewpoint Depression Visibility Wind Speed Wind Dir Waves Ship Positions

Sea Venture

More information available from US FCC via Universal Licensing System and Coast Guard Vessel Documentation Center.

Last reported at 2014-Jul-24 18:23 UTC. Time now 2014-Aug-01 07:54 UTC.
Position N 26°08' W 080°07'.

Length 33 m.

MMSI: 338103225.

Date/timePositionNaut miles runAvg speedWind from/ knotsBaromVisibWave heightAir tempDewpointWater temp
2014-Jul-24 18:23N 26°08' W 080°07'1 1.5
2014-Jul-24 17:33N 26°07' W 080°07'6 5.8
2014-Jul-24 16:33N 26°01' W 080°07'6 5.7
2014-Jul-24 15:33N 25°55' W 080°08'9 7.5
2014-Jul-24 14:22N 25°47' W 080°11'8 0.4
2014-Jul-23 18:33N 25°39' W 080°08'  
2014-Jul-19 13:30N 25°41' W 080°07'1213.0
2014-Jul-19 12:33N 25°54' W 080°06'1212.2
2014-Jul-19 11:33N 26°06' W 080°07'2 0.2
2014-Jul-18 21:33N 26°08' W 080°07'0 0.0
2014-Jul-18 20:33N 26°08' W 080°07'0 0.0
2014-Jul-18 19:33N 26°08' W 080°07'0 0.0
2014-Jul-18 18:33N 26°08' W 080°07'0 0.0
2014-Jul-18 17:33N 26°08' W 080°07'0 0.0
2014-Jul-18 16:33N 26°08' W 080°07'0 0.0
2014-Jul-18 15:33N 26°08' W 080°07'0 0.0
2014-Jul-18 14:33N 26°08' W 080°07'0 0.0
2014-Jul-18 13:33N 26°08' W 080°07'0 0.0
2014-Jul-18 12:33N 26°08' W 080°07'0 0.0
2014-Jul-18 11:33N 26°08' W 080°07'0 0.0
2014-Jul-18 10:33N 26°08' W 080°07'0 0.0
2014-Jul-18 09:33N 26°08' W 080°07'0 0.0
2014-Jul-18 08:33N 26°08' W 080°07'0 0.0
2014-Jul-18 07:33N 26°08' W 080°07'0 0.0
2014-Jul-18 06:33N 26°08' W 080°07'0 0.0
2014-Jul-18 05:33N 26°08' W 080°07'0 0.0
2014-Jul-18 04:33N 26°08' W 080°07'0 0.0
2014-Jul-18 03:33N 26°08' W 080°07'0 0.0
2014-Jul-18 02:33N 26°08' W 080°07'0 0.0
2014-Jul-18 01:33N 26°08' W 080°07'0 0.0
2014-Jul-18 00:33N 26°08' W 080°07'0 0.0
2014-Jul-17 23:33N 26°08' W 080°07'0 0.0
2014-Jul-17 22:33N 26°08' W 080°07'0 0.0
2014-Jul-17 21:33N 26°08' W 080°07'0 0.0
2014-Jul-17 20:33N 26°08' W 080°07'0 0.0
2014-Jul-17 19:33N 26°08' W 080°07'0 0.0
2014-Jul-17 18:33N 26°08' W 080°07'0 0.0
2014-Jul-17 17:33N 26°08' W 080°07'0 0.0
2014-Jul-17 16:33N 26°08' W 080°07'0 0.0
2014-Jul-17 15:33N 26°08' W 080°07'0 0.0
2014-Jul-17 14:33N 26°08' W 080°07'0 0.0
2014-Jul-17 13:33N 26°08' W 080°07'0 0.0
2014-Jul-17 12:33N 26°08' W 080°07'0 0.0
2014-Jul-17 11:33N 26°08' W 080°07'0 0.0
2014-Jul-17 10:33N 26°08' W 080°07'0 0.0
2014-Jul-17 09:33N 26°08' W 080°07'0 0.0
2014-Jul-17 08:33N 26°08' W 080°07'0 0.0
2014-Jul-17 07:33N 26°08' W 080°07'0 0.0
2014-Jul-17 06:33N 26°08' W 080°07'0 0.0
2014-Jul-17 05:33N 26°08' W 080°07'0 0.0
2014-Jul-17 04:33N 26°08' W 080°07'0 0.0
2014-Jul-17 03:33N 26°08' W 080°07'0 0.0
2014-Jul-17 02:33N 26°08' W 080°07'0 0.0
2014-Jul-17 01:33N 26°08' W 080°07'0 0.0
2014-Jul-17 00:33N 26°08' W 080°07'0 0.0
2014-Jul-16 23:33N 26°08' W 080°07'0 0.0
2014-Jul-16 22:33N 26°08' W 080°07'0 0.0
2014-Jul-16 21:33N 26°08' W 080°07'0 0.0
2014-Jul-16 20:33N 26°08' W 080°07'0 0.0
2014-Jul-16 19:33N 26°08' W 080°07'0 0.0
2014-Jul-16 18:33N 26°08' W 080°07'0 0.0
2014-Jul-16 17:33N 26°08' W 080°07'0 0.0
2014-Jul-16 16:33N 26°08' W 080°07'0 0.0
2014-Jul-16 15:33N 26°08' W 080°07'  

Dump ship's entire track history